sensor_id;sensor_type;location;lat;lon;timestamp;pressure;altitude;pressure_sealevel;temperature;humidity
41371;BME280;76901;48.338;10.866;2024-03-08T00:01:47;95791.16;;;1.64;88.14
41371;BME280;76901;48.338;10.866;2024-03-08T00:04:14;95787.22;;;1.66;86.76
41371;BME280;76901;48.338;10.866;2024-03-08T00:06:39;95789.00;;;1.61;87.08
41371;BME280;76901;48.338;10.866;2024-03-08T00:09:05;95788.44;;;1.59;87.67
41371;BME280;76901;48.338;10.866;2024-03-08T00:11:30;95773.56;;;1.58;87.19
41371;BME280;76901;48.338;10.866;2024-03-08T00:13:55;95777.81;;;1.59;90.88
41371;BME280;76901;48.338;10.866;2024-03-08T00:16:21;95770.13;;;1.57;88.12
41371;BME280;76901;48.338;10.866;2024-03-08T00:18:46;95771.88;;;1.51;87.63
41371;BME280;76901;48.338;10.866;2024-03-08T00:21:13;95776.66;;;1.49;87.66
41371;BME280;76901;48.338;10.866;2024-03-08T00:23:38;95783.19;;;1.42;88.30
41371;BME280;76901;48.338;10.866;2024-03-08T00:26:03;95777.31;;;1.40;88.12
41371;BME280;76901;48.338;10.866;2024-03-08T00:28:29;95776.19;;;1.36;88.36
41371;BME280;76901;48.338;10.866;2024-03-08T00:30:54;95766.31;;;1.31;89.30
41371;BME280;76901;48.338;10.866;2024-03-08T00:33:19;95762.91;;;1.36;89.28
41371;BME280;76901;48.338;10.866;2024-03-08T00:35:45;95757.06;;;1.34;88.84
41371;BME280;76901;48.338;10.866;2024-03-08T00:38:12;95750.66;;;1.29;88.93
41371;BME280;76901;48.338;10.866;2024-03-08T00:40:37;95760.50;;;1.34;88.30
41371;BME280;76901;48.338;10.866;2024-03-08T00:43:02;95754.41;;;1.34;88.39
41371;BME280;76901;48.338;10.866;2024-03-08T00:45:28;95754.53;;;1.22;89.05
41371;BME280;76901;48.338;10.866;2024-03-08T00:47:53;95759.00;;;1.21;89.68
41371;BME280;76901;48.338;10.866;2024-03-08T00:50:19;95765.22;;;1.27;91.07
41371;BME280;76901;48.338;10.866;2024-03-08T00:52:44;95755.13;;;1.29;89.18
41371;BME280;76901;48.338;10.866;2024-03-08T00:55:11;95749.28;;;1.27;88.76
41371;BME280;76901;48.338;10.866;2024-03-08T00:57:36;95744.69;;;1.22;89.43
41371;BME280;76901;48.338;10.866;2024-03-08T01:00:03;95744.63;;;1.17;89.21
41371;BME280;76901;48.338;10.866;2024-03-08T01:02:28;95742.53;;;1.19;89.00
41371;BME280;76901;48.338;10.866;2024-03-08T01:04:54;95744.31;;;1.14;89.23
41371;BME280;76901;48.338;10.866;2024-03-08T01:07:19;95740.06;;;1.13;89.31
41371;BME280;76901;48.338;10.866;2024-03-08T01:09:44;95738.03;;;1.20;88.92
41371;BME280;76901;48.338;10.866;2024-03-08T01:12:11;95743.56;;;1.18;89.26
41371;BME280;76901;48.338;10.866;2024-03-08T01:14:36;95730.66;;;1.22;89.10
41371;BME280;76901;48.338;10.866;2024-03-08T01:17:02;95727.59;;;1.13;89.45
41371;BME280;76901;48.338;10.866;2024-03-08T01:19:27;95724.06;;;1.07;89.64
41371;BME280;76901;48.338;10.866;2024-03-08T01:21:52;95718.75;;;1.07;89.22
41371;BME280;76901;48.338;10.866;2024-03-08T01:24:19;95719.25;;;1.04;89.58
41371;BME280;76901;48.338;10.866;2024-03-08T01:26:44;95718.94;;;1.01;90.21
41371;BME280;76901;48.338;10.866;2024-03-08T01:29:11;95716.03;;;1.02;90.33
41371;BME280;76901;48.338;10.866;2024-03-08T01:31:37;95705.09;;;0.99;89.47
41371;BME280;76901;48.338;10.866;2024-03-08T01:34:02;95714.28;;;0.91;90.29
41371;BME280;76901;48.338;10.866;2024-03-08T01:36:27;95703.56;;;1.03;90.01
41371;BME280;76901;48.338;10.866;2024-03-08T01:38:53;95709.84;;;0.97;89.97
41371;BME280;76901;48.338;10.866;2024-03-08T01:41:19;95697.34;;;0.92;90.12
41371;BME280;76901;48.338;10.866;2024-03-08T01:43:44;95696.34;;;0.98;89.95
41371;BME280;76901;48.338;10.866;2024-03-08T01:46:12;95696.28;;;0.93;89.73
41371;BME280;76901;48.338;10.866;2024-03-08T01:48:39;95694.63;;;0.87;90.07
41371;BME280;76901;48.338;10.866;2024-03-08T01:51:05;95688.75;;;0.85;93.63
41371;BME280;76901;48.338;10.866;2024-03-08T01:53:30;95689.38;;;0.92;90.72
41371;BME280;76901;48.338;10.866;2024-03-08T01:55:57;95686.06;;;1.02;91.49
41371;BME280;76901;48.338;10.866;2024-03-08T01:58:23;95677.16;;;0.91;90.32
41371;BME280;76901;48.338;10.866;2024-03-08T02:00:49;95674.13;;;0.82;91.01
41371;BME280;76901;48.338;10.866;2024-03-08T02:03:16;95673.56;;;0.80;90.26
41371;BME280;76901;48.338;10.866;2024-03-08T02:05:41;95669.47;;;0.73;90.84
41371;BME280;76901;48.338;10.866;2024-03-08T02:08:07;95670.03;;;0.75;91.66
41371;BME280;76901;48.338;10.866;2024-03-08T02:10:33;95668.41;;;0.74;91.04
41371;BME280;76901;48.338;10.866;2024-03-08T02:12:58;95660.97;;;0.71;91.19
41371;BME280;76901;48.338;10.866;2024-03-08T02:15:24;95655.00;;;0.80;90.79
41371;BME280;76901;48.338;10.866;2024-03-08T02:17:49;95648.75;;;0.70;91.33
41371;BME280;76901;48.338;10.866;2024-03-08T02:20:16;95644.56;;;0.74;90.94
41371;BME280;76901;48.338;10.866;2024-03-08T02:22:43;95647.63;;;0.66;91.53
41371;BME280;76901;48.338;10.866;2024-03-08T02:25:08;95643.06;;;0.61;91.56
41371;BME280;76901;48.338;10.866;2024-03-08T02:27:34;95646.13;;;0.53;92.57
41371;BME280;76901;48.338;10.866;2024-03-08T02:29:59;95651.81;;;0.61;93.97
41371;BME280;76901;48.338;10.866;2024-03-08T02:32:24;95640.41;;;0.61;92.20
41371;BME280;76901;48.338;10.866;2024-03-08T02:34:50;95639.13;;;0.63;92.29
41371;BME280;76901;48.338;10.866;2024-03-08T02:37:16;95648.13;;;0.62;92.11
41371;BME280;76901;48.338;10.866;2024-03-08T02:39:42;95640.63;;;0.59;92.43
41371;BME280;76901;48.338;10.866;2024-03-08T02:42:08;95637.53;;;0.46;93.06
41371;BME280;76901;48.338;10.866;2024-03-08T02:44:33;95647.56;;;0.43;94.05
41371;BME280;76901;48.338;10.866;2024-03-08T02:46:59;95644.19;;;0.48;93.90
41371;BME280;76901;48.338;10.866;2024-03-08T02:49:24;95649.00;;;0.51;95.48
41371;BME280;76901;48.338;10.866;2024-03-08T02:51:49;95642.00;;;0.62;94.58
41371;BME280;76901;48.338;10.866;2024-03-08T02:54:15;95645.63;;;0.56;93.16
41371;BME280;76901;48.338;10.866;2024-03-08T02:56:41;95636.09;;;0.55;93.03
41371;BME280;76901;48.338;10.866;2024-03-08T02:59:07;95631.59;;;0.55;93.10
41371;BME280;76901;48.338;10.866;2024-03-08T03:01:33;95628.88;;;0.50;93.22
41371;BME280;76901;48.338;10.866;2024-03-08T03:03:58;95631.66;;;0.43;93.89
41371;BME280;76901;48.338;10.866;2024-03-08T03:06:24;95634.63;;;0.47;93.72
41371;BME280;76901;48.338;10.866;2024-03-08T03:08:49;95621.78;;;0.56;97.33
41371;BME280;76901;48.338;10.866;2024-03-08T03:11:14;95633.44;;;0.55;94.07
41371;BME280;76901;48.338;10.866;2024-03-08T03:13:41;95633.66;;;0.53;93.34
41371;BME280;76901;48.338;10.866;2024-03-08T03:16:07;95622.72;;;0.50;93.69
41371;BME280;76901;48.338;10.866;2024-03-08T03:18:32;95616.97;;;0.53;94.29
41371;BME280;76901;48.338;10.866;2024-03-08T03:20:57;95614.63;;;0.56;93.67
41371;BME280;76901;48.338;10.866;2024-03-08T03:23:23;95619.56;;;0.48;93.59
41371;BME280;76901;48.338;10.866;2024-03-08T03:25:48;95617.13;;;0.46;93.73
41371;BME280;76901;48.338;10.866;2024-03-08T03:28:13;95621.94;;;0.49;94.84
41371;BME280;76901;48.338;10.866;2024-03-08T03:30:40;95621.63;;;0.46;93.93
41371;BME280;76901;48.338;10.866;2024-03-08T03:33:06;95617.28;;;0.39;94.11
41371;BME280;76901;48.338;10.866;2024-03-08T03:35:31;95621.41;;;0.30;95.30
41371;BME280;76901;48.338;10.866;2024-03-08T03:37:56;95615.28;;;0.30;95.05
41371;BME280;76901;48.338;10.866;2024-03-08T03:40:22;95620.69;;;0.35;94.81
41371;BME280;76901;48.338;10.866;2024-03-08T03:42:47;95614.25;;;0.31;94.87
41371;BME280;76901;48.338;10.866;2024-03-08T03:45:12;95614.56;;;0.34;94.88
41371;BME280;76901;48.338;10.866;2024-03-08T03:47:39;95614.09;;;0.37;95.31
41371;BME280;76901;48.338;10.866;2024-03-08T03:50:06;95608.16;;;0.30;94.71
41371;BME280;76901;48.338;10.866;2024-03-08T03:52:32;95607.03;;;0.26;96.20
41371;BME280;76901;48.338;10.866;2024-03-08T03:54:57;95605.09;;;0.21;95.39
41371;BME280;76901;48.338;10.866;2024-03-08T03:57:22;95604.78;;;0.18;95.80
41371;BME280;76901;48.338;10.866;2024-03-08T03:59:48;95611.13;;;0.17;96.31
41371;BME280;76901;48.338;10.866;2024-03-08T04:02:13;95612.56;;;0.25;96.17
41371;BME280;76901;48.338;10.866;2024-03-08T04:04:40;95610.72;;;0.25;96.91
41371;BME280;76901;48.338;10.866;2024-03-08T04:07:05;95611.53;;;0.26;96.83
41371;BME280;76901;48.338;10.866;2024-03-08T04:09:31;95613.38;;;0.25;96.33
41371;BME280;76901;48.338;10.866;2024-03-08T04:11:56;95610.47;;;0.27;97.36
41371;BME280;76901;48.338;10.866;2024-03-08T04:14:23;95611.59;;;0.31;95.68
41371;BME280;76901;48.338;10.866;2024-03-08T04:16:48;95610.31;;;0.33;95.44
41371;BME280;76901;48.338;10.866;2024-03-08T04:19:13;95608.31;;;0.24;96.34
41371;BME280;76901;48.338;10.866;2024-03-08T04:21:40;95611.28;;;0.27;96.15
41371;BME280;76901;48.338;10.866;2024-03-08T04:24:06;95605.09;;;0.38;95.96
41371;BME280;76901;48.338;10.866;2024-03-08T04:26:31;95599.94;;;0.32;95.73
41371;BME280;76901;48.338;10.866;2024-03-08T04:28:57;95598.84;;;0.28;96.35
41371;BME280;76901;48.338;10.866;2024-03-08T04:31:22;95595.16;;;0.29;97.18
41371;BME280;76901;48.338;10.866;2024-03-08T04:33:47;95589.69;;;0.18;96.71
41371;BME280;76901;48.338;10.866;2024-03-08T04:36:13;95590.41;;;0.14;97.78
41371;BME280;76901;48.338;10.866;2024-03-08T04:38:40;95585.59;;;0.28;96.55
41371;BME280;76901;48.338;10.866;2024-03-08T04:41:05;95585.53;;;0.23;96.89
41371;BME280;76901;48.338;10.866;2024-03-08T04:43:30;95585.03;;;0.26;96.99
41371;BME280;76901;48.338;10.866;2024-03-08T04:45:56;95586.81;;;0.20;97.42
41371;BME280;76901;48.338;10.866;2024-03-08T04:48:21;95591.63;;;0.23;98.50
41371;BME280;76901;48.338;10.866;2024-03-08T04:50:46;95591.53;;;0.18;97.61
41371;BME280;76901;48.338;10.866;2024-03-08T04:53:12;95577.50;;;0.17;98.13
41371;BME280;76901;48.338;10.866;2024-03-08T04:55:39;95570.50;;;0.28;97.27
41371;BME280;76901;48.338;10.866;2024-03-08T04:58:04;95577.16;;;0.31;96.90
41371;BME280;76901;48.338;10.866;2024-03-08T05:00:29;95581.25;;;0.21;97.49
41371;BME280;76901;48.338;10.866;2024-03-08T05:02:55;95574.38;;;0.20;97.91
41371;BME280;76901;48.338;10.866;2024-03-08T05:05:20;95576.22;;;0.20;97.75
41371;BME280;76901;48.338;10.866;2024-03-08T05:07:45;95584.56;;;0.29;99.65
41371;BME280;76901;48.338;10.866;2024-03-08T05:10:11;95573.94;;;0.46;99.71
41371;BME280;76901;48.338;10.866;2024-03-08T05:12:37;95576.59;;;0.46;96.42
41371;BME280;76901;48.338;10.866;2024-03-08T05:15:03;95562.41;;;0.35;96.70
41371;BME280;76901;48.338;10.866;2024-03-08T05:17:29;95570.25;;;0.30;97.41
41371;BME280;76901;48.338;10.866;2024-03-08T05:19:54;95573.47;;;0.32;97.44
41371;BME280;76901;48.338;10.866;2024-03-08T05:22:19;95570.34;;;0.35;98.17
41371;BME280;76901;48.338;10.866;2024-03-08T05:24:45;95574.91;;;0.39;97.43
41371;BME280;76901;48.338;10.866;2024-03-08T05:27:10;95574.72;;;0.46;96.63
41371;BME280;76901;48.338;10.866;2024-03-08T05:29:37;95578.69;;;0.43;96.75
41371;BME280;76901;48.338;10.866;2024-03-08T05:32:02;95580.53;;;0.43;96.08
41371;BME280;76901;48.338;10.866;2024-03-08T05:34:28;95577.72;;;0.33;97.17
41371;BME280;76901;48.338;10.866;2024-03-08T05:36:53;95576.69;;;0.34;96.25
41371;BME280;76901;48.338;10.866;2024-03-08T05:39:19;95569.78;;;0.33;96.56
41371;BME280;76901;48.338;10.866;2024-03-08T05:41:44;95573.06;;;0.40;96.22
41371;BME280;76901;48.338;10.866;2024-03-08T05:44:10;95566.66;;;0.36;95.79
41371;BME280;76901;48.338;10.866;2024-03-08T05:46:37;95565.44;;;0.27;96.92
41371;BME280;76901;48.338;10.866;2024-03-08T05:49:02;95570.66;;;0.38;96.79
41371;BME280;76901;48.338;10.866;2024-03-08T05:51:28;95570.88;;;0.37;95.80
41371;BME280;76901;48.338;10.866;2024-03-08T05:53:53;95565.50;;;0.32;95.99
41371;BME280;76901;48.338;10.866;2024-03-08T05:56:18;95569.53;;;0.34;95.67
41371;BME280;76901;48.338;10.866;2024-03-08T05:58:44;95560.63;;;0.40;96.20
41371;BME280;76901;48.338;10.866;2024-03-08T06:01:09;95561.19;;;0.42;95.16
41371;BME280;76901;48.338;10.866;2024-03-08T06:03:36;95559.66;;;0.30;95.83
41371;BME280;76901;48.338;10.866;2024-03-08T06:06:01;95562.31;;;0.30;96.32
41371;BME280;76901;48.338;10.866;2024-03-08T06:08:27;95558.69;;;0.36;95.15
41371;BME280;76901;48.338;10.866;2024-03-08T06:10:52;95563.06;;;0.25;96.30
41371;BME280;76901;48.338;10.866;2024-03-08T06:13:18;95559.59;;;0.25;96.35
41371;BME280;76901;48.338;10.866;2024-03-08T06:15:43;95559.13;;;0.28;95.86
41371;BME280;76901;48.338;10.866;2024-03-08T06:18:08;95554.53;;;0.23;95.90
41371;BME280;76901;48.338;10.866;2024-03-08T06:20:35;95554.34;;;0.30;96.33
41371;BME280;76901;48.338;10.866;2024-03-08T06:23:00;95551.97;;;0.28;97.84
41371;BME280;76901;48.338;10.866;2024-03-08T06:25:26;95560.03;;;0.55;100.00
41371;BME280;76901;48.338;10.866;2024-03-08T06:27:51;95565.56;;;0.54;95.62
41371;BME280;76901;48.338;10.866;2024-03-08T06:30:17;95563.72;;;0.54;95.63
41371;BME280;76901;48.338;10.866;2024-03-08T06:32:42;95561.31;;;0.53;95.18
41371;BME280;76901;48.338;10.866;2024-03-08T06:35:08;95566.84;;;0.51;94.46
41371;BME280;76901;48.338;10.866;2024-03-08T06:37:35;95565.66;;;0.42;94.59
41371;BME280;76901;48.338;10.866;2024-03-08T06:40:01;95566.72;;;0.41;94.32
41371;BME280;76901;48.338;10.866;2024-03-08T06:42:27;95562.88;;;0.32;95.08
41371;BME280;76901;48.338;10.866;2024-03-08T06:44:52;95564.88;;;0.25;95.40
41371;BME280;76901;48.338;10.866;2024-03-08T06:47:17;95568.72;;;0.34;97.65
41371;BME280;76901;48.338;10.866;2024-03-08T06:49:43;95568.88;;;0.44;96.46
41371;BME280;76901;48.338;10.866;2024-03-08T06:52:08;95575.47;;;0.41;95.16
41371;BME280;76901;48.338;10.866;2024-03-08T06:54:35;95563.75;;;0.37;95.04
41371;BME280;76901;48.338;10.866;2024-03-08T06:57:00;95559.81;;;0.40;95.09
41371;BME280;76901;48.338;10.866;2024-03-08T06:59:26;95566.66;;;0.36;95.91
41371;BME280;76901;48.338;10.866;2024-03-08T07:01:51;95567.94;;;0.33;95.37
41371;BME280;76901;48.338;10.866;2024-03-08T07:04:17;95561.28;;;0.31;95.26
41371;BME280;76901;48.338;10.866;2024-03-08T07:06:42;95558.63;;;0.31;95.59
41371;BME280;76901;48.338;10.866;2024-03-08T07:09:08;95559.81;;;0.40;95.61
41371;BME280;76901;48.338;10.866;2024-03-08T07:11:35;95555.81;;;0.37;95.28
41371;BME280;76901;48.338;10.866;2024-03-08T07:14:01;95550.25;;;0.39;96.13
41371;BME280;76901;48.338;10.866;2024-03-08T07:16:26;95551.69;;;0.47;95.36
41371;BME280;76901;48.338;10.866;2024-03-08T07:18:52;95553.78;;;0.45;95.46
41371;BME280;76901;48.338;10.866;2024-03-08T07:21:17;95550.88;;;0.46;94.97
41371;BME280;76901;48.338;10.866;2024-03-08T07:23:43;95547.28;;;0.52;96.35
41371;BME280;76901;48.338;10.866;2024-03-08T07:26:09;95538.44;;;0.47;95.27
41371;BME280;76901;48.338;10.866;2024-03-08T07:28:35;95545.16;;;0.54;95.51
41371;BME280;76901;48.338;10.866;2024-03-08T07:31:01;95539.81;;;0.71;96.52
41371;BME280;76901;48.338;10.866;2024-03-08T07:33:26;95541.19;;;0.74;94.18
41371;BME280;76901;48.338;10.866;2024-03-08T07:35:51;95537.72;;;0.73;94.96
41371;BME280;76901;48.338;10.866;2024-03-08T07:38:17;95547.34;;;0.79;93.77
41371;BME280;76901;48.338;10.866;2024-03-08T07:40:43;95542.31;;;0.78;93.39
41371;BME280;76901;48.338;10.866;2024-03-08T07:43:08;95547.28;;;0.74;94.23
41371;BME280;76901;48.338;10.866;2024-03-08T07:45:35;95541.25;;;0.79;94.86
41371;BME280;76901;48.338;10.866;2024-03-08T07:48:00;95540.75;;;1.04;98.15
41371;BME280;76901;48.338;10.866;2024-03-08T07:50:26;95539.38;;;1.01;93.29
41371;BME280;76901;48.338;10.866;2024-03-08T07:52:51;95544.06;;;0.94;92.39
41371;BME280;76901;48.338;10.866;2024-03-08T07:55:16;95537.63;;;0.85;92.97
41371;BME280;76901;48.338;10.866;2024-03-08T07:57:42;95526.47;;;0.83;92.48
41371;BME280;76901;48.338;10.866;2024-03-08T08:00:08;95524.78;;;0.77;92.91
41371;BME280;76901;48.338;10.866;2024-03-08T08:02:35;95527.44;;;0.77;93.01
41371;BME280;76901;48.338;10.866;2024-03-08T08:05:00;95522.63;;;0.74;93.64
41371;BME280;76901;48.338;10.866;2024-03-08T08:07:25;95526.69;;;1.03;95.71
41371;BME280;76901;48.338;10.866;2024-03-08T08:09:52;95518.69;;;0.98;93.01
41371;BME280;76901;48.338;10.866;2024-03-08T08:12:18;95520.53;;;0.98;93.52
41371;BME280;76901;48.338;10.866;2024-03-08T08:14:43;95531.69;;;1.00;93.65
41371;BME280;76901;48.338;10.866;2024-03-08T08:17:08;95524.34;;;1.07;93.47
41371;BME280;76901;48.338;10.866;2024-03-08T08:19:35;95525.50;;;1.16;92.24
41371;BME280;76901;48.338;10.866;2024-03-08T08:22:00;95528.47;;;1.20;93.01
41371;BME280;76901;48.338;10.866;2024-03-08T08:24:26;95526.28;;;1.17;92.24
41371;BME280;76901;48.338;10.866;2024-03-08T08:26:51;95523.59;;;1.12;92.04
41371;BME280;76901;48.338;10.866;2024-03-08T08:29:17;95520.09;;;1.06;92.33
41371;BME280;76901;48.338;10.866;2024-03-08T08:31:42;95518.03;;;1.13;91.75
41371;BME280;76901;48.338;10.866;2024-03-08T08:34:09;95511.09;;;1.07;91.86
41371;BME280;76901;48.338;10.866;2024-03-08T08:36:36;95504.28;;;1.16;92.04
41371;BME280;76901;48.338;10.866;2024-03-08T08:39:01;95499.44;;;1.35;94.18
41371;BME280;76901;48.338;10.866;2024-03-08T08:41:26;95496.63;;;1.47;91.39
41371;BME280;76901;48.338;10.866;2024-03-08T08:43:52;95503.03;;;1.51;90.23
41371;BME280;76901;48.338;10.866;2024-03-08T08:46:17;95497.06;;;1.39;91.08
41371;BME280;76901;48.338;10.866;2024-03-08T08:48:43;95497.88;;;1.39;90.74
41371;BME280;76901;48.338;10.866;2024-03-08T08:51:09;95490.81;;;1.50;90.58
41371;BME280;76901;48.338;10.866;2024-03-08T08:53:36;95486.91;;;1.58;90.43
41371;BME280;76901;48.338;10.866;2024-03-08T08:56:02;95488.03;;;1.67;89.92
41371;BME280;76901;48.338;10.866;2024-03-08T08:58:27;95484.88;;;1.70;88.70
41371;BME280;76901;48.338;10.866;2024-03-08T09:00:53;95485.13;;;1.68;90.00
41371;BME280;76901;48.338;10.866;2024-03-08T09:03:18;95485.16;;;1.73;89.78
41371;BME280;76901;48.338;10.866;2024-03-08T09:05:43;95479.06;;;1.73;89.89
41371;BME280;76901;48.338;10.866;2024-03-08T09:08:09;95480.19;;;1.82;89.94
41371;BME280;76901;48.338;10.866;2024-03-08T09:10:35;95474.41;;;1.90;89.28
41371;BME280;76901;48.338;10.866;2024-03-08T09:13:01;95462.91;;;1.80;89.09
41371;BME280;76901;48.338;10.866;2024-03-08T09:15:26;95475.69;;;1.83;88.58
41371;BME280;76901;48.338;10.866;2024-03-08T09:17:52;95471.13;;;1.78;88.76
41371;BME280;76901;48.338;10.866;2024-03-08T09:20:17;95461.59;;;1.82;89.63
41371;BME280;76901;48.338;10.866;2024-03-08T09:22:43;95468.59;;;1.99;88.44
41371;BME280;76901;48.338;10.866;2024-03-08T09:25:09;95467.81;;;1.98;88.54
41371;BME280;76901;48.338;10.866;2024-03-08T09:27:36;95467.53;;;1.94;87.75
41371;BME280;76901;48.338;10.866;2024-03-08T09:30:01;95467.22;;;1.91;88.21
41371;BME280;76901;48.338;10.866;2024-03-08T09:32:27;95464.06;;;1.89;88.60
41371;BME280;76901;48.338;10.866;2024-03-08T09:34:52;95466.47;;;1.96;88.64
41371;BME280;76901;48.338;10.866;2024-03-08T09:37:18;95468.38;;;2.00;88.73
41371;BME280;76901;48.338;10.866;2024-03-08T09:39:43;95463.91;;;2.11;89.21
41371;BME280;76901;48.338;10.866;2024-03-08T09:42:08;95457.38;;;2.29;88.48
41371;BME280;76901;48.338;10.866;2024-03-08T09:44:36;95456.66;;;2.39;86.95
41371;BME280;76901;48.338;10.866;2024-03-08T09:47:02;95458.00;;;2.46;86.82
41371;BME280;76901;48.338;10.866;2024-03-08T09:49:28;95457.75;;;2.53;87.15
41371;BME280;76901;48.338;10.866;2024-03-08T09:51:53;95452.97;;;2.50;84.96
41371;BME280;76901;48.338;10.866;2024-03-08T09:54:19;95452.72;;;2.51;85.32
41371;BME280;76901;48.338;10.866;2024-03-08T09:56:45;95446.09;;;2.59;84.69
41371;BME280;76901;48.338;10.866;2024-03-08T09:59:12;95452.03;;;2.82;85.86
41371;BME280;76901;48.338;10.866;2024-03-08T10:01:38;95443.50;;;2.79;83.99
41371;BME280;76901;48.338;10.866;2024-03-08T10:04:04;95446.69;;;2.71;84.53
41371;BME280;76901;48.338;10.866;2024-03-08T10:06:30;95443.47;;;2.69;85.20
41371;BME280;76901;48.338;10.866;2024-03-08T10:08:55;95437.59;;;2.62;85.24
41371;BME280;76901;48.338;10.866;2024-03-08T10:11:21;95434.94;;;2.62;86.24
41371;BME280;76901;48.338;10.866;2024-03-08T10:13:47;95438.97;;;2.75;84.95
41371;BME280;76901;48.338;10.866;2024-03-08T10:16:13;95428.34;;;2.80;85.71
41371;BME280;76901;48.338;10.866;2024-03-08T10:18:40;95421.72;;;2.93;84.01
41371;BME280;76901;48.338;10.866;2024-03-08T10:21:06;95421.25;;;3.11;83.62
41371;BME280;76901;48.338;10.866;2024-03-08T10:23:32;95415.41;;;3.30;83.45
41371;BME280;76901;48.338;10.866;2024-03-08T10:26:09;95413.81;;;3.23;82.49
41371;BME280;76901;48.338;10.866;2024-03-08T10:28:34;95419.94;;;3.34;83.19
41371;BME280;76901;48.338;10.866;2024-03-08T10:31:00;95422.34;;;3.46;83.08
41371;BME280;76901;48.338;10.866;2024-03-08T10:33:25;95422.34;;;3.41;81.01
41371;BME280;76901;48.338;10.866;2024-03-08T10:35:52;95425.00;;;3.41;82.10
41371;BME280;76901;48.338;10.866;2024-03-08T10:38:20;95418.88;;;3.61;84.63
41371;BME280;76901;48.338;10.866;2024-03-08T10:40:48;95421.78;;;3.75;80.72
41371;BME280;76901;48.338;10.866;2024-03-08T10:43:24;95416.75;;;3.78;80.01
41371;BME280;76901;48.338;10.866;2024-03-08T10:45:52;95419.94;;;3.75;81.18
41371;BME280;76901;48.338;10.866;2024-03-08T10:48:29;95417.28;;;3.80;79.73
41371;BME280;76901;48.338;10.866;2024-03-08T10:50:56;95420.22;;;3.69;78.97
41371;BME280;76901;48.338;10.866;2024-03-08T10:53:27;95419.41;;;3.58;80.58
41371;BME280;76901;48.338;10.866;2024-03-08T10:55:53;95414.59;;;3.60;80.57
41371;BME280;76901;48.338;10.866;2024-03-08T10:58:20;95411.94;;;3.60;80.97
41371;BME280;76901;48.338;10.866;2024-03-08T11:00:46;95406.34;;;3.77;84.72
41371;BME280;76901;48.338;10.866;2024-03-08T11:03:44;95407.13;;;3.82;81.21
41371;BME280;76901;48.338;10.866;2024-03-08T11:06:13;95398.06;;;3.94;80.16
41371;BME280;76901;48.338;10.866;2024-03-08T11:08:39;95393.25;;;4.01;81.14
41371;BME280;76901;48.338;10.866;2024-03-08T11:11:04;95386.31;;;4.15;80.28
41371;BME280;76901;48.338;10.866;2024-03-08T11:13:33;95383.59;;;4.30;79.43
41371;BME280;76901;48.338;10.866;2024-03-08T11:15:59;95382.75;;;4.40;83.64
41371;BME280;76901;48.338;10.866;2024-03-08T11:18:25;95378.69;;;4.53;80.74
41371;BME280;76901;48.338;10.866;2024-03-08T11:20:53;95374.63;;;4.66;78.04
41371;BME280;76901;48.338;10.866;2024-03-08T11:23:22;95370.53;;;4.84;74.79
41371;BME280;76901;48.338;10.866;2024-03-08T11:25:48;95370.25;;;4.85;73.92
41371;BME280;76901;48.338;10.866;2024-03-08T11:28:14;95360.59;;;4.94;74.36
41371;BME280;76901;48.338;10.866;2024-03-08T11:30:41;95368.56;;;5.00;73.64
41371;BME280;76901;48.338;10.866;2024-03-08T11:33:11;95359.94;;;5.13;74.18
41371;BME280;76901;48.338;10.866;2024-03-08T11:35:36;95354.59;;;5.13;74.75
41371;BME280;76901;48.338;10.866;2024-03-08T11:38:02;95351.06;;;5.23;73.86
41371;BME280;76901;48.338;10.866;2024-03-08T11:40:29;95342.91;;;5.38;72.96
41371;BME280;76901;48.338;10.866;2024-03-08T11:42:54;95336.91;;;5.51;71.88
41371;BME280;76901;48.338;10.866;2024-03-08T11:45:19;95333.38;;;5.61;71.97
41371;BME280;76901;48.338;10.866;2024-03-08T11:47:45;95323.63;;;5.75;72.84
41371;BME280;76901;48.338;10.866;2024-03-08T11:50:11;95332.75;;;5.98;70.28
41371;BME280;76901;48.338;10.866;2024-03-08T11:52:36;95326.44;;;6.13;70.06
41371;BME280;76901;48.338;10.866;2024-03-08T11:55:02;95321.16;;;6.08;71.33
41371;BME280;76901;48.338;10.866;2024-03-08T11:57:29;95312.09;;;6.28;69.94
41371;BME280;76901;48.338;10.866;2024-03-08T11:59:55;95323.19;;;6.40;69.91
41371;BME280;76901;48.338;10.866;2024-03-08T12:02:21;95307.88;;;6.46;68.46
41371;BME280;76901;48.338;10.866;2024-03-08T12:04:46;95305.06;;;6.56;70.09
41371;BME280;76901;48.338;10.866;2024-03-08T12:07:13;95300.22;;;6.77;67.53
41371;BME280;76901;48.338;10.866;2024-03-08T12:09:38;95295.28;;;6.84;67.22
41371;BME280;76901;48.338;10.866;2024-03-08T12:12:05;95306.88;;;6.99;66.20
41371;BME280;76901;48.338;10.866;2024-03-08T12:14:33;95306.94;;;6.94;64.78
41371;BME280;76901;48.338;10.866;2024-03-08T12:16:58;95291.59;;;6.80;65.62
41371;BME280;76901;48.338;10.866;2024-03-08T12:19:24;95291.75;;;6.89;67.17
41371;BME280;76901;48.338;10.866;2024-03-08T12:21:49;95282.69;;;6.85;65.92
41371;BME280;76901;48.338;10.866;2024-03-08T12:24:16;95292.47;;;6.95;66.85
41371;BME280;76901;48.338;10.866;2024-03-08T12:26:41;95282.47;;;7.00;65.51
41371;BME280;76901;48.338;10.866;2024-03-08T12:29:18;95288.84;;;7.04;65.36
41371;BME280;76901;48.338;10.866;2024-03-08T12:31:45;95274.28;;;7.10;63.21
41371;BME280;76901;48.338;10.866;2024-03-08T12:34:10;95272.19;;;7.07;65.96
41371;BME280;76901;48.338;10.866;2024-03-08T12:36:36;95273.31;;;7.20;64.13
41371;BME280;76901;48.338;10.866;2024-03-08T12:39:01;95266.44;;;7.33;64.37
41371;BME280;76901;48.338;10.866;2024-03-08T12:41:27;95268.78;;;7.21;64.90
41371;BME280;76901;48.338;10.866;2024-03-08T12:43:53;95250.31;;;7.19;64.57
41371;BME280;76901;48.338;10.866;2024-03-08T12:46:19;95255.19;;;7.31;65.87
41371;BME280;76901;48.338;10.866;2024-03-08T12:48:46;95249.75;;;7.50;62.79
41371;BME280;76901;48.338;10.866;2024-03-08T12:51:11;95253.53;;;7.49;62.47
41371;BME280;76901;48.338;10.866;2024-03-08T12:53:37;95249.16;;;7.39;63.27